Time;durP1;ratioP1;P1;durP2;ratioP2;P2;SDS_P1;SDS_P2;PMS_P1;PMS_P2;Temp;Humidity;BMP_temperature;BMP_pressure;BME280_temperature;BME280_humidity;BME280_pressure;Samples;Min_cycle;Max_cycle;Signal;HPM_P1;HPM_P2
2022/10/16 00:01:16;;;;;;;88.68;61.35;;;19.80;1.00;;;;;;5053007;28;20044;-68
2022/10/16 00:03:43;;;;;;;84.10;59.35;;;19.80;1.00;;;;;;5048544;28;20025;-68
2022/10/16 00:06:10;;;;;;;85.88;60.38;;;19.80;1.00;;;;;;5049971;28;20378;-68
2022/10/16 00:08:36;;;;;;;83.57;59.08;;;19.80;1.00;;;;;;5045440;28;20043;-68
2022/10/16 00:11:09;;;;;;;81.70;60.25;;;19.80;1.00;;;;;;5042156;28;20028;-68
2022/10/16 00:13:35;;;;;;;87.25;61.05;;;19.70;1.00;;;;;;5043697;28;20465;-67
2022/10/16 00:16:02;;;;;;;84.18;59.90;;;19.70;1.00;;;;;;5045853;28;20066;-68
2022/10/16 00:18:29;;;;;;;84.18;56.90;;;19.60;1.00;;;;;;5051969;28;20108;-68
2022/10/16 00:20:55;;;;;;;81.72;58.42;;;19.70;1.00;;;;;;5043870;28;20032;-68
2022/10/16 00:23:21;;;;;;;83.43;58.42;;;19.70;1.00;;;;;;5050323;28;20033;-68
2022/10/16 00:25:59;;;;;;;84.82;59.05;;;19.70;1.00;;;;;;5038158;28;20025;-68
2022/10/16 00:28:25;;;;;;;85.03;58.28;;;19.70;1.00;;;;;;5048021;28;20119;-69
2022/10/16 00:30:51;;;;;;;80.22;57.40;;;19.70;1.00;;;;;;5051232;28;20025;-68
2022/10/16 00:33:17;;;;;;;81.35;55.33;;;19.70;1.00;;;;;;5051383;28;20052;-69
2022/10/16 00:35:43;;;;;;;78.93;53.08;;;19.70;1.00;;;;;;5051021;28;20033;-69
2022/10/16 00:38:09;;;;;;;78.68;57.15;;;19.70;1.00;;;;;;5051605;28;20092;-69
2022/10/16 00:40:35;;;;;;;78.55;55.92;;;19.70;1.00;;;;;;5049987;28;20061;-68
2022/10/16 00:43:00;;;;;;;74.07;54.17;;;19.70;1.00;;;;;;5043485;28;20053;-69
2022/10/16 00:45:26;;;;;;;78.72;53.75;;;19.70;1.00;;;;;;5033008;28;20103;-69
2022/10/16 00:47:55;;;;;;;82.07;54.65;;;19.70;1.00;;;;;;5043327;28;20064;-68
2022/10/16 00:50:26;;;;;;;79.15;55.20;;;19.70;1.00;;;;;;5046021;28;20032;-69
2022/10/16 00:52:52;;;;;;;74.40;52.63;;;19.70;1.00;;;;;;5049940;28;20055;-69
2022/10/16 00:55:18;;;;;;;75.97;53.28;;;19.70;1.00;;;;;;5047399;28;20024;-69
2022/10/16 00:57:45;;;;;;;70.60;51.20;;;19.70;1.00;;;;;;5051341;28;20033;-69
2022/10/16 01:00:17;;;;;;;70.95;51.78;;;19.70;1.00;;;;;;5044818;28;20040;-67
2022/10/16 01:02:43;;;;;;;73.10;50.78;;;19.70;1.00;;;;;;5051210;28;20032;-67
2022/10/16 01:05:09;;;;;;;68.35;49.30;;;19.70;1.00;;;;;;5044239;28;20429;-67
2022/10/16 01:08:18;;;;;;;70.38;48.50;;;19.70;1.00;;;;;;5052475;28;20029;-67
2022/10/16 01:10:59;;;;;;;64.07;48.75;;;19.60;1.00;;;;;;5008576;28;20026;-67
2022/10/16 01:13:32;;;;;;;70.78;49.10;;;19.60;1.00;;;;;;5053120;28;20099;-67
2022/10/16 01:16:15;;;;;;;66.15;49.20;;;19.60;1.00;;;;;;5046335;28;20540;-67
2022/10/16 01:18:48;;;;;;;72.10;50.00;;;19.60;1.00;;;;;;5045171;28;20040;-68
2022/10/16 01:21:32;;;;;;;66.57;48.28;;;19.60;1.00;;;;;;5038071;28;20059;-67
2022/10/16 01:24:06;;;;;;;71.60;50.78;;;19.60;1.00;;;;;;5052068;28;20029;-67
2022/10/16 01:27:19;;;;;;;72.63;48.75;;;19.60;1.00;;;;;;5054007;28;20029;-68
2022/10/16 01:30:01;;;;;;;71.60;49.60;;;19.60;1.00;;;;;;5041925;28;20029;-67
2022/10/16 01:32:48;;;;;;;73.55;49.97;;;19.60;1.00;;;;;;5051747;28;20035;-67
2022/10/16 01:35:26;;;;;;;67.28;48.65;;;19.60;1.00;;;;;;5037600;28;20108;-68
2022/10/16 01:37:52;;;;;;;70.05;48.90;;;19.60;1.00;;;;;;5041591;28;20056;-68
2022/10/16 01:40:20;;;;;;;67.82;49.38;;;19.60;1.00;;;;;;5044393;28;20021;-68
2022/10/16 01:42:52;;;;;;;67.60;48.72;;;19.60;1.00;;;;;;5067002;28;20052;-68
2022/10/16 01:45:20;;;;;;;70.60;50.95;;;19.50;1.00;;;;;;5039510;28;20032;-68
2022/10/16 01:47:47;;;;;;;70.70;50.40;;;19.60;1.00;;;;;;5053268;28;20025;-68
2022/10/16 01:50:16;;;;;;;73.93;50.13;;;19.60;1.00;;;;;;5035860;28;20072;-68
2022/10/16 01:52:45;;;;;;;71.70;51.30;;;19.60;1.00;;;;;;5051382;28;20032;-68
2022/10/16 01:55:13;;;;;;;71.15;50.92;;;19.50;1.00;;;;;;5052798;28;20170;-68
2022/10/16 01:57:45;;;;;;;72.80;49.38;;;19.60;1.00;;;;;;5055403;28;20070;-68
2022/10/16 02:00:13;;;;;;;65.85;48.10;;;19.60;1.00;;;;;;5048555;28;20039;-68
2022/10/16 02:02:44;;;;;;;69.20;49.15;;;19.60;1.00;;;;;;5052469;28;20029;-68
2022/10/16 02:05:22;;;;;;;69.88;50.13;;;19.60;1.00;;;;;;5045917;28;20025;-68
2022/10/16 02:07:48;;;;;;;68.45;50.35;;;19.60;1.00;;;;;;5045022;28;20025;-69
2022/10/16 02:10:14;;;;;;;65.40;49.95;;;19.60;1.00;;;;;;5048594;28;20087;-68
2022/10/16 02:13:09;;;;;;;75.75;51.40;;;19.60;1.00;;;;;;5054861;28;20061;-68
2022/10/16 02:15:35;;;;;;;72.63;52.28;;;19.60;1.00;;;;;;5050370;28;20044;-69
2022/10/16 02:18:03;;;;;;;73.15;50.63;;;19.60;1.00;;;;;;5054686;28;20029;-68
2022/10/16 02:20:36;;;;;;;75.03;51.10;;;19.60;1.00;;;;;;5053254;28;20040;-69
2022/10/16 02:23:03;;;;;;;68.60;49.72;;;19.60;1.00;;;;;;5054704;28;20378;-69
2022/10/16 02:25:37;;;;;;;68.85;50.88;;;19.60;1.00;;;;;;5048731;28;20040;-69
2022/10/16 02:28:17;;;;;;;74.07;52.83;;;19.60;1.00;;;;;;5055003;28;20021;-69
2022/10/16 02:31:04;;;;;;;73.45;52.90;;;19.50;1.00;;;;;;5042783;28;20036;-69
2022/10/16 02:33:32;;;;;;;66.93;49.53;;;19.50;1.00;;;;;;5053186;28;20041;-68
2022/10/16 02:35:57;;;;;;;69.45;49.78;;;19.50;1.00;;;;;;5045777;28;20060;-69
2022/10/16 02:38:25;;;;;;;77.90;52.58;;;19.50;1.00;;;;;;5054471;28;20060;-69
2022/10/16 02:40:51;;;;;;;72.43;49.75;;;19.50;1.00;;;;;;5048254;28;20029;-69
2022/10/16 02:43:16;;;;;;;72.70;51.63;;;19.50;1.00;;;;;;5052756;28;20090;-69
2022/10/16 02:45:42;;;;;;;70.25;51.35;;;19.50;1.00;;;;;;5051547;28;20025;-69
2022/10/16 02:48:08;;;;;;;70.60;50.00;;;19.40;1.00;;;;;;5049641;28;21444;-69
2022/10/16 02:50:34;;;;;;;68.05;48.63;;;19.40;1.00;;;;;;5049986;28;20031;-69
2022/10/16 02:52:59;;;;;;;71.55;49.13;;;19.50;1.00;;;;;;5053026;28;20104;-69
2022/10/16 02:55:26;;;;;;;69.25;49.47;;;19.50;1.00;;;;;;5043114;28;20438;-69
2022/10/16 02:57:52;;;;;;;67.63;48.33;;;19.40;1.00;;;;;;5046982;28;20036;-69
2022/10/16 03:00:18;;;;;;;64.90;48.88;;;19.50;1.00;;;;;;5050363;28;20033;-69
2022/10/16 03:02:44;;;;;;;66.88;48.40;;;19.50;1.00;;;;;;5053989;28;20462;-69
2022/10/16 03:05:10;;;;;;;67.03;49.35;;;19.50;1.00;;;;;;5046065;28;20045;-69
2022/10/16 03:07:35;;;;;;;66.43;47.78;;;19.50;1.00;;;;;;5050468;28;20025;-70
2022/10/16 03:10:02;;;;;;;66.40;48.55;;;19.50;1.00;;;;;;5049251;28;20168;-69
2022/10/16 03:12:28;;;;;;;68.55;48.78;;;19.50;1.00;;;;;;5052420;28;20049;-69
2022/10/16 03:14:55;;;;;;;68.95;49.05;;;19.50;1.00;;;;;;5050394;28;20114;-69
2022/10/16 03:17:20;;;;;;;68.88;48.78;;;19.50;1.00;;;;;;5053844;28;20060;-69
2022/10/16 03:19:46;;;;;;;71.57;48.25;;;19.50;1.00;;;;;;5036024;28;20099;-69
2022/10/16 03:22:12;;;;;;;65.95;46.83;;;19.50;1.00;;;;;;5042986;28;20032;-69
2022/10/16 03:24:37;;;;;;;64.97;47.80;;;19.50;1.00;;;;;;5048686;28;20033;-69
2022/10/16 03:27:03;;;;;;;65.30;48.17;;;19.50;1.00;;;;;;5041882;28;20036;-69
2022/10/16 03:29:29;;;;;;;63.00;48.13;;;19.50;1.00;;;;;;5052817;28;20024;-68
2022/10/16 03:31:56;;;;;;;68.82;46.58;;;19.50;1.00;;;;;;5053436;28;20025;-69
2022/10/16 03:34:22;;;;;;;61.42;46.33;;;19.50;1.00;;;;;;5048219;28;20068;-69
2022/10/16 03:36:47;;;;;;;64.70;45.78;;;19.50;1.00;;;;;;5051587;28;20029;-69
2022/10/16 03:39:13;;;;;;;60.85;45.90;;;19.50;1.00;;;;;;5047605;28;20033;-69
2022/10/16 03:41:38;;;;;;;62.58;46.75;;;19.50;1.00;;;;;;5050665;28;20486;-69
2022/10/16 03:44:04;;;;;;;62.45;46.78;;;19.50;1.00;;;;;;5053717;28;20020;-69
2022/10/16 03:46:29;;;;;;;67.03;48.17;;;19.50;1.00;;;;;;5049296;28;20037;-69
2022/10/16 03:49:10;;;;;;;69.35;49.60;;;19.50;1.00;;;;;;5043978;28;20025;-69
2022/10/16 03:51:36;;;;;;;66.80;48.25;;;19.50;1.00;;;;;;5038207;28;20165;-69
2022/10/16 03:54:02;;;;;;;70.10;49.90;;;19.50;1.00;;;;;;5039251;28;20112;-69
2022/10/16 03:56:27;;;;;;;69.07;49.17;;;19.50;1.00;;;;;;5051846;28;20119;-69
2022/10/16 03:58:53;;;;;;;72.10;49.78;;;19.50;1.00;;;;;;5053005;28;20025;-69
2022/10/16 04:01:18;;;;;;;67.97;46.20;;;19.50;1.00;;;;;;5043381;28;20029;-69
2022/10/16 04:03:44;;;;;;;65.25;47.08;;;19.50;1.00;;;;;;5037195;28;20487;-69
2022/10/16 04:06:09;;;;;;;66.38;48.05;;;19.50;1.00;;;;;;5042282;28;20029;-69
2022/10/16 04:08:36;;;;;;;64.63;47.28;;;19.50;1.00;;;;;;5052140;28;20037;-68
2022/10/16 04:11:03;;;;;;;67.03;47.40;;;19.40;1.00;;;;;;5045987;28;20037;-69
2022/10/16 04:13:28;;;;;;;64.47;47.47;;;19.50;1.00;;;;;;5048597;28;20044;-69
2022/10/16 04:15:54;;;;;;;65.30;47.22;;;19.40;1.00;;;;;;5041403;28;20052;-69
2022/10/16 04:18:20;;;;;;;70.70;47.53;;;19.40;1.00;;;;;;5045108;28;20541;-69
2022/10/16 04:20:45;;;;;;;63.90;47.35;;;19.40;1.00;;;;;;5047052;28;20108;-69
2022/10/16 04:23:11;;;;;;;65.97;47.10;;;19.40;1.00;;;;;;5052338;28;20496;-69
2022/10/16 04:25:36;;;;;;;63.97;45.17;;;19.40;1.00;;;;;;5046830;28;20029;-69
2022/10/16 04:28:02;;;;;;;64.03;47.53;;;19.40;1.00;;;;;;5055285;28;20052;-69
2022/10/16 04:30:28;;;;;;;64.40;47.05;;;19.40;1.00;;;;;;5051363;28;20032;-69
2022/10/16 04:32:53;;;;;;;67.47;48.08;;;19.40;1.00;;;;;;5036759;28;20052;-68
2022/10/16 04:35:20;;;;;;;67.93;47.67;;;19.50;1.00;;;;;;5046268;28;20032;-69
2022/10/16 04:37:46;;;;;;;63.42;47.30;;;19.40;1.00;;;;;;5046231;28;20030;-69
2022/10/16 04:40:12;;;;;;;63.10;46.50;;;19.40;1.00;;;;;;5044286;28;20479;-68
2022/10/16 04:42:38;;;;;;;60.40;45.05;;;19.40;1.00;;;;;;5051829;28;20029;-69
2022/10/16 04:45:05;;;;;;;65.15;48.40;;;19.40;1.00;;;;;;5037482;28;20017;-69
2022/10/16 04:47:31;;;;;;;60.65;44.35;;;19.40;1.00;;;;;;5052059;28;20058;-68
2022/10/16 04:49:56;;;;;;;65.57;47.17;;;19.40;1.00;;;;;;5055538;28;20488;-69
2022/10/16 04:52:24;;;;;;;66.55;46.53;;;19.40;1.00;;;;;;5056708;28;20107;-69
2022/10/16 04:54:50;;;;;;;68.00;48.10;;;19.40;1.00;;;;;;5053641;28;20114;-69
2022/10/16 04:57:16;;;;;;;63.40;46.58;;;19.40;1.00;;;;;;5048891;28;20071;-69
2022/10/16 04:59:41;;;;;;;65.45;46.95;;;19.40;1.00;;;;;;5055506;28;20024;-69
2022/10/16 05:02:07;;;;;;;62.65;46.30;;;19.40;1.00;;;;;;5054947;28;20450;-68
2022/10/16 05:04:33;;;;;;;62.83;46.92;;;19.40;1.00;;;;;;5069809;28;20107;-69
2022/10/16 05:06:58;;;;;;;64.75;47.33;;;19.40;1.00;;;;;;5042229;28;20041;-69
2022/10/16 05:09:24;;;;;;;69.88;47.80;;;19.40;1.00;;;;;;5041799;28;20029;-69
2022/10/16 05:11:49;;;;;;;71.05;47.47;;;19.40;1.00;;;;;;5054960;28;20053;-69
2022/10/16 05:14:15;;;;;;;65.30;47.70;;;19.30;1.00;;;;;;5056307;28;20107;-69
2022/10/16 05:16:41;;;;;;;67.22;47.45;;;19.40;1.00;;;;;;5054193;28;20043;-69
2022/10/16 05:19:06;;;;;;;63.03;47.08;;;19.30;1.00;;;;;;5056030;28;20028;-68
2022/10/16 05:21:32;;;;;;;62.47;46.35;;;19.40;1.00;;;;;;5046302;28;20029;-69
2022/10/16 05:23:57;;;;;;;64.75;46.70;;;19.30;1.00;;;;;;5049454;28;20070;-69
2022/10/16 05:26:23;;;;;;;56.83;43.83;;;19.30;1.00;;;;;;5044782;28;20025;-69
2022/10/16 05:28:49;;;;;;;64.47;45.38;;;19.30;1.00;;;;;;5042012;28;20033;-68
2022/10/16 05:31:15;;;;;;;61.67;45.10;;;19.30;1.00;;;;;;5051739;28;20428;-69
2022/10/16 05:33:40;;;;;;;62.25;45.55;;;19.30;1.00;;;;;;5055664;28;20041;-69
2022/10/16 05:36:08;;;;;;;59.05;44.33;;;19.30;1.00;;;;;;5049551;28;20104;-69
2022/10/16 05:38:35;;;;;;;63.60;43.97;;;19.30;1.00;;;;;;5055695;28;20033;-69
2022/10/16 05:41:01;;;;;;;55.55;42.03;;;19.30;1.00;;;;;;5054939;28;20478;-69
2022/10/16 05:43:30;;;;;;;59.10;42.58;;;19.30;1.00;;;;;;5055017;28;20079;-68
2022/10/16 05:46:06;;;;;;;59.10;41.40;;;19.30;1.00;;;;;;5045590;28;20025;-69
2022/10/16 05:48:32;;;;;;;55.70;41.85;;;19.30;1.00;;;;;;5055179;28;20028;-69
2022/10/16 05:51:00;;;;;;;57.20;43.15;;;19.30;1.00;;;;;;5054907;28;20086;-69
2022/10/16 05:53:28;;;;;;;59.58;41.40;;;19.30;1.00;;;;;;5055348;28;20051;-69
2022/10/16 05:55:55;;;;;;;54.80;43.72;;;19.30;1.00;;;;;;5049073;28;20025;-69
2022/10/16 05:58:22;;;;;;;58.22;42.28;;;19.30;1.00;;;;;;5040724;28;20041;-69
2022/10/16 06:01:09;;;;;;;56.15;42.05;;;19.30;1.00;;;;;;5047353;28;20029;-69
2022/10/16 06:03:35;;;;;;;54.78;41.10;;;19.20;1.00;;;;;;5048719;28;20068;-69
2022/10/16 06:06:15;;;;;;;53.75;40.53;;;19.30;1.00;;;;;;5053009;28;20048;-68
2022/10/16 06:08:42;;;;;;;49.40;40.45;;;19.30;1.00;;;;;;5053977;28;20533;-68
2022/10/16 06:11:09;;;;;;;59.90;42.80;;;19.30;1.00;;;;;;5052554;28;20037;-69
2022/10/16 06:13:35;;;;;;;51.88;40.10;;;19.30;1.00;;;;;;5054974;28;20581;-69
2022/10/16 06:16:02;;;;;;;52.30;40.53;;;19.30;1.00;;;;;;5045055;28;20107;-69
2022/10/16 06:18:29;;;;;;;51.80;39.70;;;19.30;1.00;;;;;;5053908;28;20086;-69
2022/10/16 06:20:56;;;;;;;52.10;38.60;;;19.30;1.00;;;;;;5051641;28;20028;-69
2022/10/16 06:23:22;;;;;;;52.08;40.95;;;19.40;1.00;;;;;;5054755;28;20028;-69
2022/10/16 06:25:48;;;;;;;52.40;39.40;;;19.40;1.00;;;;;;5053353;28;20031;-69
2022/10/16 06:28:14;;;;;;;50.05;39.00;;;19.40;1.00;;;;;;5049349;28;20474;-69
2022/10/16 06:30:40;;;;;;;55.63;41.15;;;19.40;1.00;;;;;;5053894;28;20386;-69
2022/10/16 06:33:06;;;;;;;57.40;41.05;;;19.30;1.00;;;;;;5048803;28;20052;-70
2022/10/16 06:35:32;;;;;;;55.15;39.35;;;19.40;1.00;;;;;;5052518;28;20029;-69
2022/10/16 06:37:58;;;;;;;54.10;40.13;;;19.30;1.00;;;;;;5051589;28;20029;-69
2022/10/16 06:40:23;;;;;;;58.10;39.92;;;19.40;1.00;;;;;;5052650;28;20024;-69
2022/10/16 06:42:50;;;;;;;57.58;40.85;;;19.40;1.00;;;;;;5038413;28;20368;-69
2022/10/16 06:45:15;;;;;;;53.30;39.30;;;19.40;1.00;;;;;;5054706;28;20025;-69
2022/10/16 06:47:41;;;;;;;51.58;39.28;;;19.40;1.00;;;;;;5047395;28;20091;-69
2022/10/16 06:50:07;;;;;;;56.83;39.70;;;19.40;1.00;;;;;;5053522;28;20060;-69
2022/10/16 06:52:34;;;;;;;49.15;39.88;;;19.50;1.00;;;;;;5048585;28;20108;-69
2022/10/16 06:55:00;;;;;;;50.83;38.25;;;19.50;1.00;;;;;;5050846;28;20045;-69
2022/10/16 06:57:25;;;;;;;47.13;37.45;;;19.50;1.00;;;;;;5048964;28;20025;-70
2022/10/16 06:59:51;;;;;;;52.92;39.20;;;19.50;1.00;;;;;;5046166;28;20038;-70
2022/10/16 07:02:16;;;;;;;52.97;37.22;;;19.50;1.00;;;;;;5049029;28;20074;-68
2022/10/16 07:04:42;;;;;;;50.00;38.80;;;19.50;1.00;;;;;;5042868;28;20359;-68
2022/10/16 07:07:08;;;;;;;51.45;38.65;;;19.60;1.00;;;;;;5045022;28;20056;-68
2022/10/16 07:09:33;;;;;;;55.45;40.85;;;19.60;1.00;;;;;;5050546;28;20037;-68
2022/10/16 07:11:59;;;;;;;58.83;39.08;;;19.60;1.00;;;;;;5034631;28;20058;-68
2022/10/16 07:14:24;;;;;;;53.72;40.22;;;19.60;1.00;;;;;;5044940;28;20478;-68
2022/10/16 07:16:50;;;;;;;54.05;39.92;;;19.60;1.00;;;;;;5038507;28;20029;-68
2022/10/16 07:19:17;;;;;;;50.58;38.60;;;19.70;1.00;;;;;;5048104;28;20033;-68
2022/10/16 07:21:44;;;;;;;48.97;38.45;;;19.60;1.00;;;;;;5047443;28;20048;-69
2022/10/16 07:24:15;;;;;;;53.72;39.28;;;19.70;1.00;;;;;;5047805;28;20033;-79
2022/10/16 07:26:41;;;;;;;54.75;39.03;;;19.70;1.00;;;;;;5047421;28;20025;-75
2022/10/16 07:29:15;;;;;;;53.50;40.72;;;19.70;1.00;;;;;;5048571;28;20048;-76
2022/10/16 07:31:41;;;;;;;48.83;39.40;;;19.80;1.00;;;;;;5047516;28;20029;-76
2022/10/16 07:34:07;;;;;;;57.40;40.80;;;19.80;1.00;;;;;;5037545;28;20041;-76
2022/10/16 07:36:33;;;;;;;56.47;40.17;;;19.70;1.00;;;;;;5048685;28;20138;-77
2022/10/16 07:38:58;;;;;;;61.55;43.05;;;19.70;1.00;;;;;;5053512;28;20021;-76
2022/10/16 07:41:24;;;;;;;59.05;42.33;;;19.80;1.00;;;;;;5034973;28;20029;-77
2022/10/16 07:43:51;;;;;;;57.75;43.35;;;19.80;1.00;;;;;;5049544;28;20036;-77
2022/10/16 07:46:18;;;;;;;57.15;42.05;;;19.90;1.00;;;;;;5064727;28;20036;-77
2022/10/16 07:48:46;;;;;;;57.60;42.70;;;19.90;1.00;;;;;;5051135;28;20033;-75
2022/10/16 07:51:14;;;;;;;63.88;44.28;;;19.90;1.00;;;;;;5045746;28;20431;-75
2022/10/16 07:53:39;;;;;;;58.38;43.83;;;19.90;1.00;;;;;;5050892;28;20061;-76
2022/10/16 07:56:06;;;;;;;59.65;43.80;;;20.00;1.00;;;;;;5051954;28;20067;-75
2022/10/16 07:58:33;;;;;;;60.38;44.00;;;20.00;1.00;;;;;;5051449;28;20079;-77
2022/10/16 08:01:06;;;;;;;59.08;42.85;;;19.90;1.00;;;;;;5053267;28;20021;-76
2022/10/16 08:03:32;;;;;;;57.88;41.88;;;19.90;1.00;;;;;;5043585;28;20477;-77
2022/10/16 08:05:59;;;;;;;57.25;42.42;;;19.90;1.00;;;;;;5040148;28;20116;-77
2022/10/16 08:08:24;;;;;;;58.47;42.97;;;19.90;1.00;;;;;;5051718;28;20021;-78
2022/10/16 08:10:50;;;;;;;55.15;39.75;;;19.80;1.00;;;;;;5049499;28;20421;-72
2022/10/16 08:13:16;;;;;;;54.65;40.58;;;19.90;1.00;;;;;;5038550;28;20127;-71
2022/10/16 08:15:42;;;;;;;57.00;40.35;;;19.90;1.00;;;;;;5038902;28;20040;-71
2022/10/16 08:18:10;;;;;;;54.13;41.30;;;19.80;1.00;;;;;;5045101;28;20489;-72
2022/10/16 08:20:36;;;;;;;57.17;42.15;;;19.70;1.00;;;;;;5037251;28;20021;-72
2022/10/16 08:23:01;;;;;;;56.03;42.60;;;19.70;1.00;;;;;;5048139;28;20032;-72
2022/10/16 08:25:27;;;;;;;54.95;40.88;;;19.60;1.00;;;;;;5043217;28;20029;-72
2022/10/16 08:27:53;;;;;;;56.55;42.95;;;19.60;1.00;;;;;;5041873;28;20052;-71
2022/10/16 08:30:20;;;;;;;60.13;41.45;;;19.70;1.00;;;;;;5046960;28;20041;-71
2022/10/16 08:32:46;;;;;;;57.00;42.03;;;19.90;1.00;;;;;;5051457;28;20498;-71
2022/10/16 08:35:13;;;;;;;61.22;42.60;;;19.90;1.00;;;;;;5044719;28;20060;-72
2022/10/16 08:37:39;;;;;;;54.28;40.92;;;20.00;1.00;;;;;;5038481;28;20489;-71
2022/10/16 08:40:06;;;;;;;53.92;39.80;;;20.10;1.00;;;;;;5052686;28;20470;-72
2022/10/16 08:42:52;;;;;;;54.70;39.63;;;20.10;1.00;;;;;;5038579;28;20486;-72
2022/10/16 08:45:50;;;;;;;51.28;39.08;;;20.10;1.00;;;;;;5044409;28;20025;-71
2022/10/16 08:48:25;;;;;;;55.67;40.95;;;20.20;1.00;;;;;;5039214;28;20036;-72
2022/10/16 08:50:52;;;;;;;59.55;44.03;;;20.20;1.00;;;;;;5032696;28;20032;-72
2022/10/16 08:53:35;;;;;;;55.60;41.40;;;20.20;1.00;;;;;;5047489;28;20039;-72
2022/10/16 08:56:01;;;;;;;62.15;43.53;;;20.30;1.00;;;;;;5042293;28;20508;-72
2022/10/16 08:58:29;;;;;;;57.72;41.10;;;20.30;1.00;;;;;;5044565;28;20056;-72
2022/10/16 09:01:01;;;;;;;58.58;42.72;;;20.30;1.00;;;;;;5038540;28;20194;-72
2022/10/16 09:04:09;;;;;;;61.25;43.67;;;20.40;1.00;;;;;;5036082;28;20039;-72
2022/10/16 09:06:45;;;;;;;61.00;44.88;;;20.40;1.00;;;;;;5034387;28;20475;-72
2022/10/16 09:09:29;;;;;;;60.95;43.05;;;20.50;1.00;;;;;;5045558;28;20025;-72
2022/10/16 09:12:19;;;;;;;71.95;47.63;;;20.50;1.00;;;;;;5036398;28;20071;-72
2022/10/16 09:15:23;;;;;;;63.47;46.17;;;20.40;1.00;;;;;;5048717;28;20464;-72
2022/10/16 09:17:52;;;;;;;65.30;46.80;;;20.50;1.00;;;;;;5041379;28;20109;-72
2022/10/16 09:20:43;;;;;;;70.93;47.65;;;20.50;1.00;;;;;;5052617;28;20374;-72
2022/10/16 09:23:15;;;;;;;63.65;45.92;;;20.60;1.00;;;;;;5041123;28;20033;-72
2022/10/16 09:25:48;;;;;;;68.50;48.10;;;20.70;1.00;;;;;;5052440;28;20039;-72
2022/10/16 09:28:14;;;;;;;72.88;51.05;;;20.70;1.00;;;;;;5039544;28;20482;-72
2022/10/16 09:30:39;;;;;;;69.75;49.10;;;20.80;1.00;;;;;;5048782;28;20021;-72
2022/10/16 09:33:07;;;;;;;62.80;46.80;;;20.80;1.00;;;;;;5034137;28;20045;-72
2022/10/16 09:35:39;;;;;;;65.93;47.35;;;20.90;1.00;;;;;;5041641;28;20052;-71
2022/10/16 09:38:06;;;;;;;67.55;47.72;;;21.00;1.00;;;;;;5044449;28;20021;-72
2022/10/16 09:40:38;;;;;;;65.60;49.13;;;21.00;1.00;;;;;;5040593;28;20052;-72
2022/10/16 09:43:30;;;;;;;64.80;48.08;;;21.00;1.00;;;;;;5036089;28;20083;-72
2022/10/16 09:46:00;;;;;;;72.60;49.67;;;21.00;1.00;;;;;;5038608;28;20025;-72
2022/10/16 09:48:39;;;;;;;69.75;49.58;;;21.00;1.00;;;;;;5041900;28;20060;-72
2022/10/16 09:51:15;;;;;;;71.18;50.20;;;21.10;1.00;;;;;;5035589;28;20116;-72
2022/10/16 09:53:45;;;;;;;73.93;51.03;;;21.00;1.00;;;;;;5035850;28;20064;-72
2022/10/16 09:56:20;;;;;;;70.45;48.17;;;21.00;1.00;;;;;;5047488;28;20036;-72
2022/10/16 09:58:54;;;;;;;68.95;49.13;;;21.00;1.00;;;;;;5045360;28;20021;-72
2022/10/16 10:01:22;;;;;;;72.97;51.25;;;21.10;1.00;;;;;;5049486;28;20457;-72
2022/10/16 10:03:49;;;;;;;75.75;49.75;;;21.10;1.00;;;;;;5053197;28;20059;-72
2022/10/16 10:06:26;;;;;;;66.82;47.42;;;21.10;1.00;;;;;;5055605;28;20029;-72
2022/10/16 10:08:58;;;;;;;74.22;51.00;;;21.10;1.00;;;;;;5043103;28;20025;-72
2022/10/16 10:11:57;;;;;;;75.57;51.95;;;21.20;1.00;;;;;;5043582;28;20108;-72
2022/10/16 10:14:36;;;;;;;72.10;50.95;;;21.20;1.00;;;;;;5042267;28;20052;-72
2022/10/16 10:17:21;;;;;;;69.13;49.45;;;21.20;1.00;;;;;;5054630;28;20075;-72
2022/10/16 10:19:51;;;;;;;69.97;50.45;;;21.30;1.00;;;;;;5044908;28;20072;-72
2022/10/16 10:22:21;;;;;;;67.82;49.30;;;21.30;1.00;;;;;;5053859;28;20363;-72
2022/10/16 10:25:31;;;;;;;70.07;50.78;;;21.40;1.00;;;;;;5054150;28;20060;-73
2022/10/16 10:28:38;;;;;;;74.30;53.42;;;21.40;1.00;;;;;;5049256;28;20033;-73
2022/10/16 10:31:10;;;;;;;72.88;52.53;;;21.40;1.00;;;;;;4993429;28;20026;-73
2022/10/16 10:34:11;;;;;;;77.95;52.25;;;21.50;1.00;;;;;;5043614;28;20053;-72
2022/10/16 10:36:41;;;;;;;70.45;50.15;;;21.60;1.00;;;;;;5045808;28;20071;-72
2022/10/16 10:39:38;;;;;;;70.03;49.55;;;21.60;1.00;;;;;;5049685;28;20106;-72
2022/10/16 10:42:17;;;;;;;71.40;50.55;;;21.70;1.00;;;;;;5037235;28;20026;-72
2022/10/16 10:45:20;;;;;;;70.70;51.50;;;21.80;1.00;;;;;;5042077;28;20043;-72
2022/10/16 10:48:16;;;;;;;72.22;51.13;;;21.80;1.00;;;;;;5053673;28;20040;-72
2022/10/16 10:50:57;;;;;;;68.70;51.72;;;21.90;1.00;;;;;;5053669;28;20033;-72
2022/10/16 10:53:38;;;;;;;73.45;52.08;;;22.00;1.00;;;;;;5044467;28;20087;-72
2022/10/16 10:56:39;;;;;;;75.47;52.70;;;22.00;1.00;;;;;;5034661;28;20022;-72
2022/10/16 10:59:30;;;;;;;80.97;53.30;;;22.20;1.00;;;;;;5049802;28;20040;-72
2022/10/16 11:02:05;;;;;;;76.85;54.78;;;22.30;1.00;;;;;;5034615;28;20041;-72
2022/10/16 11:04:49;;;;;;;72.65;52.25;;;22.30;1.00;;;;;;5052321;28;20107;-72
2022/10/16 11:07:26;;;;;;;72.00;50.60;;;22.40;1.00;;;;;;5053523;28;20028;-72
2022/10/16 11:10:01;;;;;;;73.35;53.45;;;22.50;1.00;;;;;;5052551;28;20028;-72
2022/10/16 11:12:44;;;;;;;75.88;53.58;;;22.50;1.00;;;;;;5060426;28;20429;-72
2022/10/16 11:15:18;;;;;;;77.30;54.22;;;22.70;1.00;;;;;;5039414;28;20045;-72
2022/10/16 11:18:10;;;;;;;76.80;54.65;;;22.60;1.00;;;;;;5052893;28;20017;-72
2022/10/16 11:20:45;;;;;;;74.60;55.85;;;22.50;1.00;;;;;;5044188;28;20033;-72
2022/10/16 11:23:40;;;;;;;81.78;54.88;;;22.70;1.00;;;;;;5048664;28;20025;-72
2022/10/16 11:26:17;;;;;;;79.13;54.38;;;22.70;1.00;;;;;;5053921;28;20037;-72
2022/10/16 11:28:50;;;;;;;77.63;56.05;;;22.50;1.00;;;;;;5052603;28;20488;-72
2022/10/16 11:31:37;;;;;;;79.00;55.03;;;22.70;1.00;;;;;;5044809;28;20053;-72
2022/10/16 11:34:17;;;;;;;75.85;56.78;;;22.70;1.00;;;;;;5050098;28;20032;-72
2022/10/16 11:36:52;;;;;;;76.70;53.45;;;22.80;1.00;;;;;;5053736;28;20612;-72
2022/10/16 11:39:29;;;;;;;82.93;56.55;;;22.80;1.00;;;;;;5052609;28;20455;-71
2022/10/16 11:42:03;;;;;;;74.72;54.92;;;22.90;1.00;;;;;;5039095;28;20490;-70
2022/10/16 11:44:37;;;;;;;68.13;52.13;;;23.10;1.00;;;;;;5040591;28;20549;-70
2022/10/16 11:47:15;;;;;;;69.75;51.13;;;23.10;1.00;;;;;;5046362;28;20112;-70
2022/10/16 11:49:43;;;;;;;69.93;53.75;;;23.00;1.00;;;;;;5051319;28;20021;-70
2022/10/16 11:52:27;;;;;;;73.05;52.70;;;23.10;1.00;;;;;;5052974;28;20078;-70
2022/10/16 11:55:19;;;;;;;77.43;54.60;;;23.20;1.00;;;;;;5032771;28;20107;-70
2022/10/16 11:57:51;;;;;;;76.93;57.25;;;23.20;1.00;;;;;;5042283;28;20018;-70
2022/10/16 12:00:28;;;;;;;77.25;55.72;;;23.20;1.00;;;;;;5051321;28;20033;-70
2022/10/16 12:03:09;;;;;;;79.07;59.53;;;23.20;1.00;;;;;;5052599;28;20032;-70
2022/10/16 12:05:51;;;;;;;84.78;59.83;;;23.30;1.00;;;;;;5052304;28;20042;-70
2022/10/16 12:08:17;;;;;;;80.43;58.80;;;23.30;1.00;;;;;;5050493;28;20433;-70
2022/10/16 12:10:45;;;;;;;78.47;58.20;;;23.40;1.00;;;;;;5052223;28;20082;-71
2022/10/16 12:13:39;;;;;;;75.82;56.75;;;23.40;1.00;;;;;;5051401;28;20132;-71
2022/10/16 12:16:14;;;;;;;76.30;56.83;;;23.40;1.00;;;;;;5037657;28;20051;-71
2022/10/16 12:18:47;;;;;;;87.78;60.83;;;23.40;1.00;;;;;;5038949;28;20120;-71
2022/10/16 12:21:15;;;;;;;81.33;58.60;;;23.30;1.00;;;;;;5052915;28;20028;-71
2022/10/16 12:23:53;;;;;;;79.45;59.10;;;23.50;1.00;;;;;;5042670;28;20029;-71
2022/10/16 12:26:27;;;;;;;79.10;58.13;;;23.50;1.00;;;;;;5053013;28;20489;-71
2022/10/16 12:28:53;;;;;;;76.65;57.65;;;23.30;1.00;;;;;;5050588;28;20040;-71
2022/10/16 12:31:19;;;;;;;73.82;56.47;;;23.30;1.00;;;;;;5052774;28;20062;-71
2022/10/16 12:34:04;;;;;;;72.65;55.70;;;23.40;1.00;;;;;;5050126;28;20482;-71
2022/10/16 12:36:33;;;;;;;84.18;58.47;;;23.40;1.00;;;;;;5043767;28;20025;-71
2022/10/16 12:38:59;;;;;;;81.97;58.67;;;23.40;1.00;;;;;;5055180;28;20504;-71
2022/10/16 12:41:34;;;;;;;74.95;56.65;;;23.50;1.00;;;;;;5052570;28;20088;-71
2022/10/16 12:44:03;;;;;;;76.30;56.45;;;23.50;1.00;;;;;;5042474;28;20048;-71
2022/10/16 12:46:29;;;;;;;74.38;55.42;;;23.50;1.00;;;;;;5052162;28;20075;-71
2022/10/16 12:49:13;;;;;;;72.40;55.17;;;23.50;1.00;;;;;;5061624;28;20033;-71
2022/10/16 12:51:40;;;;;;;74.93;55.20;;;23.50;1.00;;;;;;5052590;28;20071;-71
2022/10/16 12:54:14;;;;;;;78.13;55.78;;;23.70;1.00;;;;;;5051314;28;20039;-71
2022/10/16 12:56:48;;;;;;;76.82;56.17;;;23.60;1.00;;;;;;5049384;28;20022;-71
2022/10/16 12:59:32;;;;;;;;;;;23.70;1.00;;;;;;5050522;28;20029;-71